createdAt,value
2022-12-25T00:00:33.269Z,11.40
2022-12-25T00:02:59.819Z,12.07
2022-12-25T00:05:26.425Z,13.30
2022-12-25T00:07:52.957Z,11.95
2022-12-25T00:10:19.394Z,10.40
2022-12-25T00:12:45.902Z,11.25
2022-12-25T00:15:12.745Z,11.63
2022-12-25T00:17:39.251Z,12.40
2022-12-25T00:20:06.373Z,12.93
2022-12-25T00:22:32.915Z,11.40
2022-12-25T00:24:59.413Z,10.30
2022-12-25T00:27:25.955Z,11.25
2022-12-25T00:29:52.453Z,10.88
2022-12-25T00:32:19.940Z,10.70
2022-12-25T00:34:47.835Z,11.17
2022-12-25T00:37:14.344Z,10.90
2022-12-25T00:39:40.915Z,11.07
2022-12-25T00:42:19.728Z,11.18
2022-12-25T00:44:50.797Z,10.32
2022-12-25T00:47:18.069Z,9.83
2022-12-25T00:49:45.037Z,10.77
2022-12-25T00:52:11.529Z,9.95
2022-12-25T00:54:38.016Z,9.60
2022-12-25T00:57:04.514Z,10.02
2022-12-25T00:59:33.479Z,11.00
2022-12-25T01:02:29.256Z,10.38
2022-12-25T01:04:57.062Z,10.55
2022-12-25T01:07:26.380Z,10.18
2022-12-25T01:10:11.494Z,10.68
2022-12-25T01:12:41.320Z,9.43
2022-12-25T01:15:09.883Z,10.70
2022-12-25T01:17:36.771Z,9.63
2022-12-25T01:20:04.070Z,9.65
2022-12-25T01:22:30.652Z,11.18
2022-12-25T01:24:57.089Z,10.53
2022-12-25T01:27:24.098Z,9.77
2022-12-25T01:29:50.601Z,9.57
2022-12-25T01:32:17.097Z,9.80
2022-12-25T01:34:48.140Z,9.82
2022-12-25T01:37:17.023Z,9.33
2022-12-25T01:39:43.756Z,10.00
2022-12-25T01:42:17.619Z,9.40
2022-12-25T01:44:46.993Z,9.23
2022-12-25T01:47:15.195Z,9.57
2022-12-25T01:49:44.230Z,9.70
2022-12-25T01:52:21.750Z,9.18
2022-12-25T01:54:56.004Z,8.82
2022-12-25T01:57:28.631Z,9.27
2022-12-25T01:59:56.854Z,10.32
2022-12-25T02:02:23.814Z,10.33
2022-12-25T02:05:11.670Z,8.50
2022-12-25T02:07:41.187Z,9.77
2022-12-25T02:10:09.683Z,9.80
2022-12-25T02:12:37.655Z,8.70
2022-12-25T02:15:27.696Z,8.77
2022-12-25T02:18:25.188Z,9.05
2022-12-25T02:20:54.641Z,8.35
2022-12-25T02:24:02.951Z,8.27
2022-12-25T02:26:51.494Z,8.40
2022-12-25T02:29:39.197Z,8.00
2022-12-25T02:32:31.583Z,8.00
2022-12-25T02:35:03.041Z,8.23
2022-12-25T02:37:34.651Z,7.82
2022-12-25T02:40:20.856Z,8.30
2022-12-25T02:43:19.066Z,8.70
2022-12-25T02:46:11.574Z,8.60
2022-12-25T02:49:01.929Z,7.68
2022-12-25T02:51:51.066Z,8.25
2022-12-25T02:54:41.156Z,8.10
2022-12-25T02:57:29.474Z,8.40
2022-12-25T03:00:17.886Z,8.38
2022-12-25T03:03:04.446Z,8.73
2022-12-25T03:05:52.322Z,8.32
2022-12-25T03:08:22.675Z,7.97
2022-12-25T03:11:15.835Z,8.53
2022-12-25T03:13:45.041Z,8.45
2022-12-25T03:16:30.182Z,9.40
2022-12-25T03:18:58.195Z,9.10
2022-12-25T03:21:43.379Z,9.15
2022-12-25T03:24:28.679Z,8.80
2022-12-25T03:26:57.191Z,9.00
2022-12-25T03:29:51.501Z,9.82
2022-12-25T03:32:36.844Z,9.38
2022-12-25T03:35:25.668Z,10.20
2022-12-25T03:38:25.505Z,9.17
2022-12-25T03:41:30.197Z,9.00
2022-12-25T03:44:42.225Z,9.00
2022-12-25T03:47:25.489Z,8.02
2022-12-25T03:50:35.858Z,8.77
2022-12-25T03:53:26.204Z,10.60
2022-12-25T03:56:12.437Z,9.57
2022-12-25T03:59:11.848Z,10.15
2022-12-25T04:01:57.665Z,9.88
2022-12-25T04:04:42.944Z,11.23
2022-12-25T04:07:28.271Z,10.10
2022-12-25T04:10:13.819Z,9.30
2022-12-25T04:12:59.504Z,9.45
2022-12-25T04:15:44.945Z,9.80
2022-12-25T04:18:30.076Z,10.77
2022-12-25T04:21:14.855Z,10.70
2022-12-25T04:23:59.757Z,11.57
2022-12-25T04:26:45.109Z,11.55
2022-12-25T04:29:30.010Z,12.52
2022-12-25T04:32:14.827Z,10.82
2022-12-25T04:34:59.805Z,11.10
2022-12-25T04:37:26.285Z,11.23
2022-12-25T04:39:52.789Z,12.10
2022-12-25T04:42:19.318Z,12.15
2022-12-25T04:44:45.928Z,12.13
2022-12-25T04:47:12.879Z,12.63
2022-12-25T04:49:39.681Z,11.95
2022-12-25T04:52:06.352Z,11.85
2022-12-25T04:54:32.885Z,11.40
2022-12-25T04:56:59.358Z,10.98
2022-12-25T04:59:25.810Z,11.33
2022-12-25T05:01:52.356Z,10.20
2022-12-25T05:04:18.862Z,9.68
2022-12-25T05:06:45.355Z,9.40
2022-12-25T05:09:11.887Z,9.70
2022-12-25T05:11:38.315Z,9.23
2022-12-25T05:14:04.767Z,10.07
2022-12-25T05:16:31.443Z,9.05
2022-12-25T05:18:58.202Z,8.50
2022-12-25T05:21:24.687Z,8.60
2022-12-25T05:23:52.422Z,9.20
2022-12-25T05:26:24.803Z,7.90
2022-12-25T05:28:51.751Z,9.38
2022-12-25T05:31:18.876Z,8.10
2022-12-25T05:33:45.505Z,7.88
2022-12-25T05:36:12.531Z,7.20
2022-12-25T05:38:39.649Z,6.93
2022-12-25T05:41:06.243Z,7.75
2022-12-25T05:43:32.916Z,7.28
2022-12-25T05:46:05.490Z,7.35
2022-12-25T05:48:33.667Z,7.30
2022-12-25T05:51:08.355Z,7.72
2022-12-25T05:53:35.574Z,8.30
2022-12-25T05:56:04.140Z,6.93
2022-12-25T05:58:32.034Z,7.95
2022-12-25T06:00:59.109Z,7.87
2022-12-25T06:03:26.573Z,7.45
2022-12-25T06:05:53.254Z,6.60
2022-12-25T06:08:20.675Z,6.95
2022-12-25T06:10:47.623Z,6.82
2022-12-25T06:13:14.086Z,7.00
2022-12-25T06:15:41.817Z,7.53
2022-12-25T06:18:08.802Z,7.55
2022-12-25T06:20:35.582Z,5.75
2022-12-25T06:23:02.268Z,6.72
2022-12-25T06:25:28.758Z,6.63
2022-12-25T06:27:55.478Z,7.00
2022-12-25T06:30:21.991Z,6.47
2022-12-25T06:32:48.497Z,7.13
2022-12-25T06:35:15.133Z,6.13
2022-12-25T06:37:41.578Z,6.47
2022-12-25T06:40:08.533Z,6.43
2022-12-25T06:42:35.018Z,5.65
2022-12-25T06:45:01.530Z,6.15
2022-12-25T06:47:28.029Z,5.70
2022-12-25T06:49:54.483Z,5.47
2022-12-25T06:52:21.175Z,5.30
2022-12-25T06:54:47.662Z,6.32
2022-12-25T06:57:14.142Z,6.00
2022-12-25T06:59:40.654Z,6.10
2022-12-25T07:02:16.920Z,6.80
2022-12-25T07:04:43.527Z,5.90
2022-12-25T07:07:10.713Z,6.80
2022-12-25T07:09:39.101Z,6.80
2022-12-25T07:12:07.285Z,6.40
2022-12-25T07:14:34.233Z,5.80
2022-12-25T07:17:00.754Z,6.90
2022-12-25T07:19:27.431Z,6.53
2022-12-25T07:21:53.971Z,6.15
2022-12-25T07:24:22.060Z,6.20
2022-12-25T07:26:49.593Z,7.13
2022-12-25T07:29:16.410Z,6.43
2022-12-25T07:31:43.043Z,6.93
2022-12-25T07:34:09.565Z,7.15
2022-12-25T07:36:36.102Z,6.40
2022-12-25T07:39:02.717Z,6.40
2022-12-25T07:41:29.206Z,6.18
2022-12-25T07:44:12.925Z,7.10
2022-12-25T07:46:39.432Z,5.85
2022-12-25T07:49:06.011Z,6.72
2022-12-25T07:51:32.468Z,6.50
2022-12-25T07:53:58.963Z,5.60
2022-12-25T07:56:25.696Z,6.10
2022-12-25T07:58:52.262Z,7.03
2022-12-25T08:01:21.835Z,5.93
2022-12-25T08:03:53.647Z,6.23
2022-12-25T08:06:21.286Z,6.38
2022-12-25T08:08:47.978Z,5.90
2022-12-25T08:11:14.662Z,5.95
2022-12-25T08:13:41.322Z,5.63
2022-12-25T08:16:09.947Z,5.80
2022-12-25T08:18:37.780Z,6.00
2022-12-25T08:21:07.065Z,6.53
2022-12-25T08:23:35.203Z,5.30
2022-12-25T08:26:05.319Z,6.00
2022-12-25T08:28:33.463Z,6.10
2022-12-25T08:30:59.993Z,4.93
2022-12-25T08:33:26.629Z,5.80
2022-12-25T08:35:53.228Z,5.15
2022-12-25T08:38:19.726Z,5.53
2022-12-25T08:40:46.143Z,6.00
2022-12-25T08:43:12.643Z,5.10
2022-12-25T08:45:39.158Z,5.07
2022-12-25T08:48:05.893Z,5.20
2022-12-25T08:50:32.781Z,5.13
2022-12-25T08:52:59.314Z,4.93
2022-12-25T08:55:25.850Z,4.55
2022-12-25T08:57:53.302Z,5.63
2022-12-25T09:00:20.069Z,4.80
2022-12-25T09:02:46.716Z,5.05
2022-12-25T09:05:13.387Z,6.43
2022-12-25T09:07:39.926Z,5.43
2022-12-25T09:10:07.199Z,5.93
2022-12-25T09:12:33.747Z,5.20
2022-12-25T09:15:00.268Z,5.03
2022-12-25T09:17:26.723Z,5.20
2022-12-25T09:19:53.388Z,6.05
2022-12-25T09:22:19.919Z,5.68
2022-12-25T09:24:46.415Z,4.93
2022-12-25T09:27:13.251Z,3.97
2022-12-25T09:29:40.419Z,6.77
2022-12-25T09:32:07.162Z,5.38
2022-12-25T09:34:33.848Z,4.43
2022-12-25T09:37:01.068Z,4.47
2022-12-25T09:39:27.975Z,5.05
2022-12-25T09:42:22.475Z,4.20
2022-12-25T09:44:57.875Z,4.22
2022-12-25T09:47:27.908Z,4.90
2022-12-25T09:50:02.632Z,4.20
2022-12-25T09:52:48.312Z,4.25
2022-12-25T09:55:21.627Z,4.87
2022-12-25T09:58:00.450Z,4.38
2022-12-25T10:00:38.072Z,4.53
2022-12-25T10:03:26.581Z,4.25
2022-12-25T10:06:16.748Z,4.03
2022-12-25T10:08:52.368Z,4.80
2022-12-25T10:11:21.892Z,4.13
2022-12-25T10:13:57.493Z,4.80
2022-12-25T10:16:42.325Z,4.90
2022-12-25T10:19:26.760Z,4.45
2022-12-25T10:21:58.223Z,4.23
2022-12-25T10:24:35.934Z,5.07
2022-12-25T10:27:11.481Z,5.07
2022-12-25T10:29:39.663Z,4.90
2022-12-25T10:32:06.222Z,4.90
2022-12-25T10:34:33.002Z,4.80
2022-12-25T10:36:59.558Z,5.25
2022-12-25T10:39:26.433Z,5.07
2022-12-25T10:42:11.470Z,4.82
2022-12-25T10:44:38.033Z,4.88
2022-12-25T10:47:05.064Z,5.50
2022-12-25T10:49:37.903Z,5.57
2022-12-25T10:52:19.203Z,5.22
2022-12-25T10:54:45.748Z,5.05
2022-12-25T10:57:17.672Z,6.18
2022-12-25T10:59:56.772Z,5.37
2022-12-25T11:02:27.591Z,5.32
2022-12-25T11:05:06.183Z,5.95
2022-12-25T11:07:46.808Z,5.93
2022-12-25T11:10:24.898Z,5.72
2022-12-25T11:12:53.540Z,6.20
2022-12-25T11:15:29.004Z,6.00
2022-12-25T11:17:55.490Z,5.88
2022-12-25T11:20:22.588Z,6.07
2022-12-25T11:22:50.070Z,6.35
2022-12-25T11:25:25.490Z,5.50
2022-12-25T11:28:05.836Z,6.03
2022-12-25T11:30:33.614Z,6.65
2022-12-25T11:33:11.404Z,6.28
2022-12-25T11:35:47.792Z,6.10
2022-12-25T11:38:14.453Z,5.37
2022-12-25T11:40:48.655Z,5.97
2022-12-25T11:43:25.460Z,5.95
2022-12-25T11:46:03.352Z,6.18
2022-12-25T11:48:35.737Z,5.60
2022-12-25T11:51:05.674Z,6.20
2022-12-25T11:53:41.298Z,5.90
2022-12-25T11:56:29.225Z,5.90
2022-12-25T11:59:03.540Z,6.40
2022-12-25T12:01:50.666Z,6.60
2022-12-25T12:04:30.196Z,6.67
2022-12-25T12:07:20.262Z,6.18
2022-12-25T12:10:13.810Z,6.93
2022-12-25T12:13:11.381Z,6.47
2022-12-25T12:15:46.712Z,6.78
2022-12-25T12:18:22.400Z,7.13
2022-12-25T12:21:07.240Z,6.50
2022-12-25T12:23:50.274Z,7.28
2022-12-25T12:26:20.430Z,6.47
2022-12-25T12:28:48.988Z,6.65
2022-12-25T12:31:16.492Z,7.13
2022-12-25T12:33:51.107Z,7.15
2022-12-25T12:36:25.118Z,7.25
2022-12-25T12:39:01.577Z,6.43
2022-12-25T12:41:44.543Z,7.90
2022-12-25T12:44:11.588Z,7.00
2022-12-25T12:46:39.876Z,7.85
2022-12-25T12:49:32.182Z,6.90
2022-12-25T12:52:26.144Z,8.38
2022-12-25T12:54:59.041Z,7.25
2022-12-25T12:57:32.708Z,7.97
2022-12-25T13:00:04.726Z,7.57
2022-12-25T13:02:57.684Z,8.80
2022-12-25T13:05:42.158Z,9.18
2022-12-25T13:08:14.732Z,8.45
2022-12-25T13:10:48.833Z,9.10
2022-12-25T13:13:20.398Z,7.10
2022-12-25T13:15:49.606Z,8.55
2022-12-25T13:18:16.633Z,11.13
2022-12-25T13:20:59.374Z,11.57
2022-12-25T13:23:30.240Z,11.77
2022-12-25T13:25:59.600Z,11.43
2022-12-25T13:28:31.405Z,12.00
2022-12-25T13:31:07.269Z,12.13
2022-12-25T13:33:34.590Z,10.95
2022-12-25T13:36:01.339Z,13.17
2022-12-25T13:38:29.129Z,10.68
2022-12-25T13:41:15.973Z,12.45
2022-12-25T13:43:44.312Z,11.02
2022-12-25T13:46:15.426Z,9.45
2022-12-25T13:48:42.877Z,9.83
2022-12-25T13:51:15.898Z,10.82
2022-12-25T13:53:43.877Z,12.05
2022-12-25T13:56:15.808Z,11.45
2022-12-25T13:58:43.635Z,11.10
2022-12-25T14:01:12.540Z,11.17
2022-12-25T14:03:39.011Z,11.55
2022-12-25T14:06:18.983Z,11.63
2022-12-25T14:08:46.892Z,12.07
2022-12-25T14:11:20.433Z,12.75
2022-12-25T14:13:49.482Z,12.10
2022-12-25T14:16:18.428Z,12.75
2022-12-25T14:18:53.669Z,12.48
2022-12-25T14:21:40.816Z,13.15
2022-12-25T14:24:15.305Z,13.88
2022-12-25T14:26:42.159Z,13.47
2022-12-25T14:29:18.096Z,13.38
2022-12-25T14:31:47.176Z,12.60
2022-12-25T14:34:18.524Z,12.45
2022-12-25T14:36:45.407Z,14.05
2022-12-25T14:39:32.184Z,14.57
2022-12-25T14:41:58.978Z,16.20
2022-12-25T14:44:41.296Z,14.20
2022-12-25T14:47:10.714Z,14.07
2022-12-25T14:49:37.805Z,13.40
2022-12-25T14:52:30.943Z,17.73
2022-12-25T14:55:03.652Z,13.35
2022-12-25T14:57:40.925Z,19.95
2022-12-25T15:00:29.600Z,19.63
2022-12-25T15:02:58.277Z,16.77
2022-12-25T15:05:39.308Z,18.50
2022-12-25T15:08:19.693Z,18.60
2022-12-25T15:10:59.597Z,20.42
2022-12-25T15:13:28.780Z,17.58
2022-12-25T15:16:04.153Z,15.88
2022-12-25T15:18:36.554Z,15.47
2022-12-25T15:21:03.160Z,16.15
2022-12-25T15:23:29.742Z,15.40
2022-12-25T15:25:56.349Z,16.90
2022-12-25T15:28:22.883Z,14.85
2022-12-25T15:30:50.014Z,15.83
2022-12-25T15:33:18.818Z,18.35
2022-12-25T15:35:45.897Z,16.85
2022-12-25T15:38:14.699Z,16.42
2022-12-25T15:40:41.961Z,18.00
2022-12-25T15:43:38.966Z,14.07
2022-12-25T15:46:03.130Z,15.98
2022-12-25T15:48:29.665Z,15.38
2022-12-25T15:50:56.137Z,13.70
2022-12-25T15:53:22.717Z,14.55
2022-12-25T15:55:49.337Z,16.40
2022-12-25T15:58:15.782Z,15.32
2022-12-25T16:00:42.279Z,16.83
2022-12-25T16:03:08.897Z,15.45
2022-12-25T16:05:35.609Z,14.80
2022-12-25T16:08:02.071Z,14.83
2022-12-25T16:10:33.412Z,14.90
2022-12-25T16:13:03.288Z,14.23
2022-12-25T16:15:29.907Z,15.27
2022-12-25T16:17:56.768Z,14.05
2022-12-25T16:20:23.241Z,16.73
2022-12-25T16:22:49.780Z,13.95
2022-12-25T16:25:18.556Z,15.18
2022-12-25T16:27:45.579Z,13.00
2022-12-25T16:30:14.897Z,14.55
2022-12-25T16:32:42.298Z,14.70
2022-12-25T16:35:10.575Z,14.77
2022-12-25T16:37:37.554Z,16.30
2022-12-25T16:40:04.181Z,17.00
2022-12-25T16:42:30.703Z,16.33
2022-12-25T16:44:57.211Z,16.50
2022-12-25T16:47:23.775Z,16.65
2022-12-25T16:49:50.314Z,15.32
2022-12-25T16:52:16.782Z,14.38
2022-12-25T16:54:46.369Z,14.68
2022-12-25T16:57:13.882Z,15.60
2022-12-25T16:59:41.497Z,16.00
2022-12-25T17:02:16.541Z,15.18
2022-12-25T17:04:46.491Z,15.93
2022-12-25T17:07:14.181Z,15.70
2022-12-25T17:09:44.389Z,15.13
2022-12-25T17:12:11.335Z,13.98
2022-12-25T17:14:38.139Z,15.18
2022-12-25T17:17:04.757Z,14.50
2022-12-25T17:19:33.561Z,15.25
2022-12-25T17:22:00.098Z,15.23
2022-12-25T17:24:29.890Z,14.40
2022-12-25T17:26:56.509Z,17.27
2022-12-25T17:29:24.627Z,16.92
2022-12-25T17:31:51.444Z,16.35
2022-12-25T17:34:18.305Z,16.70
2022-12-25T17:36:44.957Z,17.00
2022-12-25T17:39:14.355Z,16.40
2022-12-25T17:41:40.884Z,15.27
2022-12-25T17:44:07.484Z,15.55
2022-12-25T17:46:34.050Z,16.17
2022-12-25T17:49:01.319Z,17.15
2022-12-25T17:51:30.077Z,18.00
2022-12-25T17:53:59.485Z,20.23
2022-12-25T17:56:26.730Z,19.23
2022-12-25T17:58:55.844Z,18.83
2022-12-25T18:01:24.180Z,17.70
2022-12-25T18:03:53.527Z,17.38
2022-12-25T18:06:23.606Z,17.50
2022-12-25T18:08:50.095Z,17.23
2022-12-25T18:11:20.427Z,18.40
2022-12-25T18:13:49.913Z,19.80
2022-12-25T18:16:17.369Z,22.80
2022-12-25T18:18:51.402Z,23.15
2022-12-25T18:21:19.108Z,20.10
2022-12-25T18:23:46.279Z,19.43
2022-12-25T18:26:13.005Z,19.90
2022-12-25T18:28:42.303Z,20.92
2022-12-25T18:31:16.779Z,19.88
2022-12-25T18:33:44.533Z,21.42
2022-12-25T18:36:13.548Z,19.00
2022-12-25T18:38:40.407Z,24.48
2022-12-25T18:41:08.868Z,25.60
2022-12-25T18:43:52.683Z,22.30
2022-12-25T18:46:26.367Z,23.17
2022-12-25T18:48:54.834Z,30.03
2022-12-25T18:51:24.413Z,25.63
2022-12-25T18:53:51.485Z,21.98
2022-12-25T18:56:21.274Z,20.48
2022-12-25T18:58:48.493Z,19.35
2022-12-25T19:01:19.074Z,20.50
2022-12-25T19:03:48.842Z,22.05
2022-12-25T19:06:24.023Z,18.75
2022-12-25T19:08:50.648Z,18.88
2022-12-25T19:11:18.376Z,19.70
2022-12-25T19:13:45.010Z,20.40
2022-12-25T19:16:12.093Z,20.00
2022-12-25T19:18:39.929Z,18.98
2022-12-25T19:21:09.234Z,19.80
2022-12-25T19:23:38.619Z,20.63
2022-12-25T19:26:09.641Z,19.57
2022-12-25T19:28:37.764Z,20.27
2022-12-25T19:31:07.440Z,19.85
2022-12-25T19:33:37.341Z,19.27
2022-12-25T19:36:10.397Z,17.85
2022-12-25T19:38:39.039Z,18.17
2022-12-25T19:41:10.204Z,18.65
2022-12-25T19:43:39.188Z,17.90
2022-12-25T19:46:06.690Z,17.52
2022-12-25T19:48:34.295Z,19.25
2022-12-25T19:51:01.030Z,21.23
2022-12-25T19:53:29.266Z,25.10
2022-12-25T19:56:02.313Z,25.35
2022-12-25T19:58:29.883Z,20.75
2022-12-25T20:01:01.777Z,19.60
2022-12-25T20:03:28.422Z,20.53
2022-12-25T20:05:55.072Z,23.20
2022-12-25T20:08:21.717Z,21.10
2022-12-25T20:10:49.190Z,20.25
2022-12-25T20:13:16.006Z,19.58
2022-12-25T20:15:42.465Z,22.33
2022-12-25T20:18:08.982Z,21.88
2022-12-25T20:20:35.618Z,22.98
2022-12-25T20:23:02.098Z,23.67
2022-12-25T20:25:28.644Z,23.13
2022-12-25T20:27:58.189Z,26.67
2022-12-25T20:30:24.688Z,27.17
2022-12-25T20:32:51.197Z,30.75
2022-12-25T20:35:17.820Z,29.48
2022-12-25T20:37:46.649Z,27.08
2022-12-25T20:40:13.280Z,30.07
2022-12-25T20:42:39.776Z,27.35
2022-12-25T20:45:07.819Z,27.20
2022-12-25T20:47:35.019Z,26.63
2022-12-25T20:50:01.569Z,28.92
2022-12-25T20:52:28.331Z,27.87
2022-12-25T20:54:54.882Z,31.70
2022-12-25T20:57:21.451Z,34.15
2022-12-25T20:59:47.978Z,32.92
2022-12-25T21:02:33.456Z,30.45
2022-12-25T21:05:01.222Z,30.57
2022-12-25T21:07:27.767Z,29.30
2022-12-25T21:09:54.417Z,30.05
2022-12-25T21:12:20.898Z,33.35
2022-12-25T21:14:47.388Z,40.88
2022-12-25T21:17:13.944Z,42.37
2022-12-25T21:19:40.503Z,33.30
2022-12-25T21:22:07.112Z,32.58
2022-12-25T21:24:33.640Z,35.08
2022-12-25T21:27:00.214Z,36.15
2022-12-25T21:29:26.871Z,28.00
2022-12-25T21:32:12.405Z,25.15
2022-12-25T21:34:39.759Z,25.60
2022-12-25T21:37:06.331Z,38.05
2022-12-25T21:39:33.077Z,29.95
2022-12-25T21:41:59.709Z,25.00
2022-12-25T21:44:26.295Z,26.02
2022-12-25T21:46:53.197Z,25.38
2022-12-25T21:49:39.510Z,23.02
2022-12-25T21:52:08.681Z,23.08
2022-12-25T21:54:35.807Z,22.17
2022-12-25T21:57:02.397Z,22.17
2022-12-25T21:59:28.920Z,22.00
2022-12-25T22:01:55.476Z,19.75
2022-12-25T22:04:22.958Z,20.13
2022-12-25T22:07:08.396Z,19.23
2022-12-25T22:09:35.105Z,19.80
2022-12-25T22:12:20.860Z,20.00
2022-12-25T22:14:54.204Z,18.23
2022-12-25T22:17:49.960Z,17.73
2022-12-25T22:20:21.642Z,18.17
2022-12-25T22:22:48.338Z,16.98
2022-12-25T22:25:16.121Z,17.85
2022-12-25T22:27:44.235Z,17.48
2022-12-25T22:30:13.973Z,17.75
2022-12-25T22:32:40.529Z,17.00
2022-12-25T22:35:07.549Z,17.58
2022-12-25T22:37:34.255Z,16.85
2022-12-25T22:40:02.896Z,17.55
2022-12-25T22:42:29.754Z,16.88
2022-12-25T22:44:56.253Z,15.90
2022-12-25T22:47:23.564Z,15.68
2022-12-25T22:49:50.087Z,15.30
2022-12-25T22:52:16.727Z,15.05
2022-12-25T22:54:43.241Z,14.00
2022-12-25T22:57:09.772Z,13.93
2022-12-25T22:59:36.384Z,13.90
2022-12-25T23:02:03.033Z,14.48
2022-12-25T23:04:29.671Z,13.95
2022-12-25T23:06:56.694Z,13.77
2022-12-25T23:09:27.990Z,13.90
2022-12-25T23:11:56.580Z,12.75
2022-12-25T23:14:39.321Z,12.25
2022-12-25T23:17:31.557Z,12.25
2022-12-25T23:20:18.297Z,11.75
2022-12-25T23:23:05.355Z,11.97
2022-12-25T23:25:52.946Z,11.73
2022-12-25T23:28:40.267Z,11.38
2022-12-25T23:31:07.067Z,11.68
2022-12-25T23:33:33.865Z,11.82
2022-12-25T23:36:00.338Z,11.80
2022-12-25T23:38:26.817Z,12.13
2022-12-25T23:40:53.447Z,12.05
2022-12-25T23:43:20.086Z,11.27
2022-12-25T23:45:46.619Z,12.68
2022-12-25T23:48:13.047Z,12.10
2022-12-25T23:50:39.560Z,12.07
2022-12-25T23:53:06.103Z,11.80
2022-12-25T23:55:33.711Z,12.27
2022-12-25T23:58:01.123Z,12.20
